Time;durP1;ratioP1;P1;durP2;ratioP2;P2;SDS_P1;SDS_P2;PMS_P1;PMS_P2;Temp;Humidity;BMP_temperature;BMP_pressure;BME280_temperature;BME280_humidity;BME280_pressure;Samples;Min_cycle;Max_cycle;Signal;HPM_P1;HPM_P2
2022/09/13 00:00:58;;;;;;;28.20;18.25;;;17.70;99.90;;;;;;5008207;28;20052;-82
2022/09/13 00:03:25;;;;;;;28.05;19.00;;;17.70;99.90;;;;;;5014634;28;20040;-81
2022/09/13 00:05:51;;;;;;;30.58;20.15;;;17.70;99.90;;;;;;5014713;28;20045;-81
2022/09/13 00:08:17;;;;;;;28.75;19.88;;;17.70;99.90;;;;;;4998094;28;20443;-79
2022/09/13 00:10:44;;;;;;;27.80;20.05;;;17.70;99.90;;;;;;5009994;28;20041;-77
2022/09/13 00:13:11;;;;;;;27.75;19.20;;;17.70;99.90;;;;;;5013805;28;20048;-80
2022/09/13 00:15:41;;;;;;;30.52;19.70;;;17.70;99.90;;;;;;5023374;28;20052;-82
2022/09/13 00:18:06;;;;;;;28.65;19.23;;;17.70;99.90;;;;;;5030179;28;20053;-81
2022/09/13 00:20:32;;;;;;;28.88;18.45;;;17.70;99.90;;;;;;5017541;28;20174;-81
2022/09/13 00:22:58;;;;;;;30.88;18.70;;;17.60;99.90;;;;;;5008001;28;20437;-80
2022/09/13 00:25:23;;;;;;;30.33;18.45;;;17.60;99.90;;;;;;5016542;28;20042;-80
2022/09/13 00:27:49;;;;;;;23.73;17.05;;;17.60;99.90;;;;;;5015186;28;20044;-82
2022/09/13 00:30:15;;;;;;;24.45;16.52;;;17.60;99.90;;;;;;5025989;28;20449;-85
2022/09/13 00:32:40;;;;;;;28.70;17.58;;;17.60;99.90;;;;;;5015595;28;20037;-80
2022/09/13 00:35:07;;;;;;;29.67;17.98;;;17.60;99.90;;;;;;5016292;28;20199;-81
2022/09/13 00:37:33;;;;;;;29.65;18.58;;;17.60;99.90;;;;;;5034291;28;20037;-83
2022/09/13 00:40:00;;;;;;;28.20;18.80;;;17.50;99.90;;;;;;5018049;28;20052;-82
2022/09/13 00:42:27;;;;;;;30.05;18.63;;;17.50;99.90;;;;;;5041438;28;20074;-81
2022/09/13 00:44:56;;;;;;;28.40;18.52;;;17.50;99.90;;;;;;5004367;28;20037;-82
2022/09/13 00:47:52;;;;;;;25.20;17.70;;;17.50;99.90;;;;;;5010170;28;20069;-84
2022/09/13 00:50:26;;;;;;;27.63;17.33;;;17.50;99.90;;;;;;5018678;28;20435;-80
2022/09/13 00:53:02;;;;;;;27.65;17.67;;;17.50;99.90;;;;;;5015403;28;20041;-79
2022/09/13 00:55:40;;;;;;;32.33;18.95;;;17.50;99.90;;;;;;5034126;28;20086;-81
2022/09/13 00:58:12;;;;;;;33.50;20.95;;;17.40;99.90;;;;;;5010071;28;20099;-81
2022/09/13 01:00:39;;;;;;;36.75;22.23;;;17.50;99.90;;;;;;5023731;28;20033;-79
2022/09/13 01:03:10;;;;;;;39.33;23.15;;;17.50;99.90;;;;;;5011019;28;20041;-82
2022/09/13 01:05:40;;;;;;;37.97;23.48;;;17.50;99.90;;;;;;5022507;28;20568;-81
2022/09/13 01:08:13;;;;;;;39.67;25.42;;;17.50;99.90;;;;;;5006213;28;20077;-81
2022/09/13 01:10:40;;;;;;;38.92;23.83;;;17.50;99.90;;;;;;5008800;28;20456;-81
2022/09/13 01:13:13;;;;;;;39.97;24.33;;;17.50;99.90;;;;;;5002438;28;20453;-80
2022/09/13 01:15:40;;;;;;;30.08;20.98;;;17.50;99.90;;;;;;5027394;28;20120;-83
2022/09/13 01:18:07;;;;;;;37.58;21.33;;;17.40;99.90;;;;;;5020469;28;20133;-80
2022/09/13 01:21:11;;;;;;;32.55;20.77;;;17.40;99.90;;;;;;5025514;28;20127;-81
2022/09/13 01:24:09;;;;;;;36.17;19.75;;;17.40;99.90;;;;;;5030243;28;20390;-79
2022/09/13 01:27:06;;;;;;;27.35;18.13;;;17.40;99.90;;;;;;4981845;28;20040;-83
2022/09/13 01:29:56;;;;;;;25.83;17.90;;;17.40;99.90;;;;;;5006867;28;20044;-81
2022/09/13 01:32:40;;;;;;;22.77;16.02;;;17.40;99.90;;;;;;5018961;28;20049;-81
2022/09/13 01:35:11;;;;;;;24.48;16.17;;;17.40;99.90;;;;;;5026024;28;20075;-79
2022/09/13 01:37:49;;;;;;;23.63;16.67;;;17.40;99.90;;;;;;5015542;28;20127;-81
2022/09/13 01:40:33;;;;;;;22.90;15.20;;;17.40;99.90;;;;;;5028218;28;20418;-80
2022/09/13 01:43:34;;;;;;;21.30;14.67;;;17.40;99.90;;;;;;5029496;28;20921;-79
2022/09/13 01:46:17;;;;;;;21.63;14.68;;;17.40;99.90;;;;;;5007932;28;20051;-79
2022/09/13 01:49:24;;;;;;;18.50;13.23;;;17.40;99.90;;;;;;5005395;28;20037;-77
2022/09/13 01:52:16;;;;;;;18.77;13.07;;;17.50;99.90;;;;;;4950492;28;20502;-81
2022/09/13 01:55:06;;;;;;;15.05;12.13;;;17.40;99.90;;;;;;4912270;29;20055;-84
2022/09/13 01:57:42;;;;;;;20.63;13.27;;;17.50;99.90;;;;;;4919022;29;20527;-83
2022/09/13 02:00:12;;;;;;;16.55;12.85;;;17.50;99.90;;;;;;4926511;29;20139;-80
2022/09/13 02:02:56;;;;;;;19.08;13.07;;;17.40;99.90;;;;;;4929602;29;20415;-76
2022/09/13 02:05:43;;;;;;;15.45;11.95;;;17.40;99.90;;;;;;4891706;29;20044;-80
2022/09/13 02:08:16;;;;;;;18.30;13.25;;;17.50;99.90;;;;;;4921256;29;20094;-79
2022/09/13 02:10:46;;;;;;;23.92;13.82;;;17.50;99.90;;;;;;4911459;29;20035;-80
2022/09/13 02:13:24;;;;;;;19.73;13.20;;;17.50;99.90;;;;;;4906153;28;20112;-81
2022/09/13 02:15:57;;;;;;;18.08;13.07;;;17.50;99.90;;;;;;4899651;29;20056;-78
2022/09/13 02:18:38;;;;;;;19.60;12.82;;;17.40;99.90;;;;;;4909074;29;20143;-78
2022/09/13 02:21:13;;;;;;;20.17;13.48;;;17.40;99.90;;;;;;4915333;29;20062;-82
2022/09/13 02:23:55;;;;;;;20.83;13.57;;;17.50;99.90;;;;;;4930813;28;20050;-79
2022/09/13 02:26:23;;;;;;;21.50;13.25;;;17.40;99.90;;;;;;4896800;29;20051;-79
2022/09/13 02:28:53;;;;;;;21.17;13.45;;;17.40;99.90;;;;;;4955068;28;20064;-83
2022/09/13 02:31:27;;;;;;;19.38;13.15;;;17.40;99.90;;;;;;4982556;28;20055;-80
2022/09/13 02:34:15;;;;;;;20.83;13.07;;;17.40;99.90;;;;;;5028449;28;20045;-79
2022/09/13 02:36:43;;;;;;;18.27;12.90;;;17.40;99.90;;;;;;5024329;28;20140;-81
2022/09/13 02:39:14;;;;;;;23.08;12.43;;;17.40;99.90;;;;;;5006097;28;20037;-78
2022/09/13 02:41:57;;;;;;;19.00;12.60;;;17.40;99.90;;;;;;5047995;28;20128;-84
2022/09/13 02:44:41;;;;;;;19.20;12.85;;;17.40;99.90;;;;;;5021815;28;20037;-84
2022/09/13 02:47:35;;;;;;;19.88;13.68;;;17.50;99.90;;;;;;5013603;28;20033;-80
2022/09/13 02:50:18;;;;;;;26.30;13.80;;;17.50;99.90;;;;;;5026146;28;20488;-80
2022/09/13 02:53:15;;;;;;;20.23;14.52;;;17.50;99.90;;;;;;5032733;28;20033;-82
2022/09/13 02:56:01;;;;;;;22.30;13.73;;;17.50;99.90;;;;;;5028623;28;20049;-82
2022/09/13 02:58:55;;;;;;;20.60;14.05;;;17.50;99.90;;;;;;5024416;28;20037;-82
2022/09/13 03:01:21;;;;;;;20.50;13.88;;;17.60;99.90;;;;;;5011026;28;20044;-83
2022/09/13 03:03:46;;;;;;;28.08;14.52;;;17.60;99.90;;;;;;5014738;28;20045;-83
2022/09/13 03:06:20;;;;;;;25.65;14.70;;;17.60;99.90;;;;;;5033497;28;20037;-85
2022/09/13 03:08:45;;;;;;;11.50;7.82;;;17.60;99.90;;;;;;5018836;28;20052;-82
2022/09/13 03:11:23;;;;;;;10.27;7.40;;;17.60;99.90;;;;;;5018210;28;20037;-81
2022/09/13 03:13:49;;;;;;;6.72;4.00;;;17.40;99.90;;;;;;5023258;28;20053;-81
2022/09/13 03:16:36;;;;;;;6.93;4.55;;;17.30;99.90;;;;;;5010706;28;20827;-83
2022/09/13 03:19:14;;;;;;;6.13;2.90;;;17.30;99.90;;;;;;5005698;28;20156;-82
2022/09/13 03:22:21;;;;;;;5.45;2.22;;;17.30;99.90;;;;;;5045880;28;20037;-80
2022/09/13 03:25:14;;;;;;;4.32;1.50;;;17.20;99.90;;;;;;4963685;28;20046;-81
2022/09/13 03:28:01;;;;;;;3.67;1.40;;;17.20;99.90;;;;;;4988502;28;20042;-83
2022/09/13 03:30:27;;;;;;;6.35;1.70;;;17.10;99.90;;;;;;4967420;28;20528;-80
2022/09/13 03:33:05;;;;;;;5.03;1.52;;;17.20;99.90;;;;;;4973722;28;20078;-82
2022/09/13 03:35:39;;;;;;;3.35;1.60;;;17.10;99.90;;;;;;4957475;28;20560;-81
2022/09/13 03:38:20;;;;;;;6.38;1.60;;;17.10;99.90;;;;;;4970230;28;20533;-83
2022/09/13 03:40:55;;;;;;;6.20;1.80;;;17.10;99.90;;;;;;4955937;28;20132;-81
2022/09/13 03:43:40;;;;;;;;;;;17.10;99.90;;;;;;4966872;28;20050;-86
2022/09/13 03:46:25;;;;;;;3.85;1.70;;;17.20;99.90;;;;;;4948571;28;20412;-80
2022/09/13 03:48:52;;;;;;;4.75;1.95;;;17.20;99.90;;;;;;4962022;28;20058;-83
2022/09/13 03:51:18;;;;;;;6.15;1.90;;;17.20;99.90;;;;;;4982658;28;20180;-80
2022/09/13 03:53:55;;;;;;;4.43;2.10;;;17.20;99.90;;;;;;4965582;28;20039;-80
2022/09/13 03:56:21;;;;;;;6.03;1.98;;;17.20;99.90;;;;;;4946081;28;20413;-79
2022/09/13 03:58:47;;;;;;;3.25;1.75;;;17.20;99.90;;;;;;4963356;28;20046;-84
2022/09/13 04:01:17;;;;;;;5.28;1.70;;;17.20;99.90;;;;;;4975678;28;20145;-79
2022/09/13 04:03:42;;;;;;;6.88;1.70;;;17.10;99.90;;;;;;5006747;28;20131;-85
2022/09/13 04:06:08;;;;;;;2.88;1.55;;;17.10;99.90;;;;;;5027028;28;20140;-78
2022/09/13 04:08:34;;;;;;;4.47;1.63;;;17.20;99.90;;;;;;5010593;28;20061;-81
2022/09/13 04:11:00;;;;;;;4.57;1.60;;;17.20;99.90;;;;;;5006354;28;20053;-80
2022/09/13 04:13:26;;;;;;;5.03;1.63;;;17.20;99.90;;;;;;5024358;28;20053;-78
2022/09/13 04:15:53;;;;;;;2.72;1.73;;;17.10;99.90;;;;;;5022435;28;20104;-80
2022/09/13 04:18:19;;;;;;;3.38;1.60;;;17.20;99.90;;;;;;5032882;28;20052;-80
2022/09/13 04:20:56;;;;;;;4.10;1.90;;;17.20;99.90;;;;;;5008692;28;20384;-81
2022/09/13 04:23:22;;;;;;;5.95;2.00;;;17.20;99.90;;;;;;5009340;28;20123;-87
2022/09/13 04:25:50;;;;;;;9.32;2.15;;;17.20;99.90;;;;;;5008089;28;20667;-81
2022/09/13 04:28:17;;;;;;;5.50;1.75;;;17.20;99.90;;;;;;5024409;28;20500;-85
2022/09/13 04:30:44;;;;;;;9.40;1.80;;;17.20;99.90;;;;;;5006596;28;20037;-80
2022/09/13 04:33:10;;;;;;;6.03;2.10;;;17.10;99.90;;;;;;4997168;28;20045;-82
2022/09/13 04:35:36;;;;;;;6.97;1.70;;;17.10;99.90;;;;;;5006551;28;20045;-81
2022/09/13 04:38:02;;;;;;;3.00;1.40;;;17.10;99.90;;;;;;5024847;28;20107;-82
2022/09/13 04:40:28;;;;;;;4.00;1.48;;;17.10;99.90;;;;;;5007368;28;20074;-81
2022/09/13 04:42:54;;;;;;;6.85;1.60;;;17.20;99.90;;;;;;5005171;28;20036;-80
2022/09/13 04:45:19;;;;;;;3.58;1.33;;;17.10;99.90;;;;;;5006656;28;20435;-86
2022/09/13 04:47:51;;;;;;;4.07;1.48;;;17.10;99.90;;;;;;5018862;28;20403;-84
2022/09/13 04:50:17;;;;;;;6.20;1.42;;;17.10;99.90;;;;;;5007658;28;20140;-82
2022/09/13 04:52:42;;;;;;;9.27;1.50;;;17.10;99.90;;;;;;5023915;28;20108;-85
2022/09/13 04:55:09;;;;;;;6.78;1.45;;;17.00;99.90;;;;;;5045637;28;20174;-82
2022/09/13 04:57:34;;;;;;;4.47;1.70;;;17.10;99.90;;;;;;5009344;28;20103;-81
2022/09/13 05:00:00;;;;;;;9.07;1.85;;;17.10;99.90;;;;;;5026941;28;20490;-80
2022/09/13 05:02:25;;;;;;;6.72;1.67;;;17.10;99.90;;;;;;5044435;28;20029;-83
2022/09/13 05:04:51;;;;;;;5.00;1.50;;;17.10;99.90;;;;;;5032109;28;20032;-80
2022/09/13 05:07:17;;;;;;;4.75;1.77;;;17.10;99.90;;;;;;5039111;28;20036;-80
2022/09/13 05:09:42;;;;;;;10.85;1.83;;;17.10;99.90;;;;;;5032724;28;20538;-82
2022/09/13 05:12:08;;;;;;;10.43;2.03;;;17.10;99.90;;;;;;5030145;28;20488;-83
2022/09/13 05:14:34;;;;;;;4.72;1.90;;;17.10;99.90;;;;;;5014028;28;20025;-83
2022/09/13 05:16:59;;;;;;;9.77;2.08;;;17.10;99.90;;;;;;5010556;28;20045;-80
2022/09/13 05:19:25;;;;;;;5.43;1.60;;;17.10;99.90;;;;;;5006578;28;20408;-81
2022/09/13 05:21:51;;;;;;;6.53;1.83;;;17.10;99.90;;;;;;5023358;28;20127;-82
2022/09/13 05:24:16;;;;;;;6.22;1.95;;;17.10;99.90;;;;;;5015765;28;20040;-80
2022/09/13 05:26:42;;;;;;;12.48;1.95;;;17.10;99.90;;;;;;5025698;28;20120;-75
2022/09/13 05:29:07;;;;;;;4.28;1.80;;;17.10;99.90;;;;;;5038755;28;20052;-75
2022/09/13 05:31:36;;;;;;;4.55;1.70;;;17.10;99.90;;;;;;5035794;28;20051;-78
2022/09/13 05:37:43;;;;;;;7.90;1.83;;;17.00;99.90;;;;;;5061420;28;20051;-75
2022/09/13 05:40:09;;;;;;;7.30;2.00;;;17.00;99.90;;;;;;5044688;28;20167;-76
2022/09/13 05:42:35;;;;;;;9.27;2.40;;;17.00;99.90;;;;;;5022514;28;20481;-78
2022/09/13 05:45:00;;;;;;;13.38;2.38;;;17.00;99.90;;;;;;5029220;28;20103;-80
2022/09/13 05:47:26;;;;;;;9.52;2.10;;;17.00;99.90;;;;;;5010325;28;20092;-78
2022/09/13 05:49:52;;;;;;;11.90;2.88;;;17.00;99.90;;;;;;5009886;28;20072;-78
2022/09/13 05:52:17;;;;;;;6.57;2.03;;;17.00;99.90;;;;;;5026959;28;20041;-75
2022/09/13 05:54:43;;;;;;;10.10;2.67;;;17.00;99.90;;;;;;5023929;28;20048;-83
2022/09/13 05:57:09;;;;;;;9.85;3.55;;;17.10;99.90;;;;;;5032845;28;20048;-78
2022/09/13 05:59:35;;;;;;;12.18;3.20;;;17.10;99.90;;;;;;5005752;28;20060;-80
2022/09/13 06:02:01;;;;;;;10.43;1.90;;;17.10;99.90;;;;;;5029633;28;20033;-82
2022/09/13 06:04:27;;;;;;;10.95;2.00;;;17.10;99.90;;;;;;5045101;28;20380;-80
2022/09/13 06:06:52;;;;;;;12.32;1.95;;;17.10;99.90;;;;;;5030565;28;20495;-78
2022/09/13 06:09:18;;;;;;;11.63;2.47;;;17.20;99.90;;;;;;5026465;28;20063;-82
2022/09/13 06:11:43;;;;;;;11.25;2.50;;;17.20;99.90;;;;;;5006789;28;20068;-83
2022/09/13 06:14:09;;;;;;;11.20;2.53;;;17.20;99.90;;;;;;5043835;28;20120;-83
2022/09/13 06:16:35;;;;;;;14.40;2.50;;;17.30;99.90;;;;;;5042621;28;20061;-81
2022/09/13 06:19:01;;;;;;;7.82;2.08;;;17.30;99.90;;;;;;5008136;28;20140;-84
2022/09/13 06:21:27;;;;;;;11.57;2.45;;;17.30;99.90;;;;;;5026278;28;20127;-80
2022/09/13 06:23:53;;;;;;;8.85;2.13;;;17.30;99.90;;;;;;5009188;28;20045;-78
2022/09/13 06:26:25;;;;;;;11.02;2.10;;;17.30;99.90;;;;;;5007431;28;20102;-80
2022/09/13 06:28:55;;;;;;;8.70;2.10;;;17.40;99.90;;;;;;5008560;28;20076;-80
2022/09/13 06:31:23;;;;;;;7.25;2.00;;;17.40;99.90;;;;;;5023144;28;20078;-76
2022/09/13 06:33:59;;;;;;;9.73;2.03;;;17.40;99.90;;;;;;5004641;28;20076;-78
2022/09/13 06:36:25;;;;;;;8.50;2.25;;;17.40;99.90;;;;;;5008184;28;20048;-81
2022/09/13 06:38:51;;;;;;;7.53;2.08;;;17.50;99.90;;;;;;5027078;28;20095;-83
2022/09/13 06:41:22;;;;;;;11.85;2.20;;;17.50;99.90;;;;;;5020967;28;20045;-82
2022/09/13 06:43:56;;;;;;;7.53;1.60;;;17.50;99.90;;;;;;5002236;28;20969;-81
2022/09/13 06:46:22;;;;;;;10.00;2.03;;;17.50;99.90;;;;;;5021930;28;20037;-80
2022/09/13 06:48:48;;;;;;;10.55;2.72;;;17.50;99.90;;;;;;5016727;28;20151;-81
2022/09/13 06:51:16;;;;;;;9.18;1.73;;;17.60;99.90;;;;;;5004164;28;20060;-77
2022/09/13 06:53:44;;;;;;;8.15;1.90;;;17.60;99.90;;;;;;5028320;28;20126;-78
2022/09/13 06:56:15;;;;;;;10.95;1.90;;;17.60;99.90;;;;;;5025787;28;20084;-77
2022/09/13 06:58:43;;;;;;;11.20;2.13;;;17.60;99.90;;;;;;5033289;28;20102;-81
2022/09/13 07:01:14;;;;;;;13.70;1.98;;;17.60;99.90;;;;;;5023670;28;20123;-85
2022/09/13 07:03:45;;;;;;;11.73;2.05;;;17.70;99.90;;;;;;5011577;28;20037;-80
2022/09/13 07:06:12;;;;;;;12.13;1.80;;;17.70;99.90;;;;;;5030672;28;20029;-78
2022/09/13 07:08:39;;;;;;;7.90;1.88;;;17.80;99.90;;;;;;5024854;28;20044;-82
2022/09/13 07:11:05;;;;;;;7.57;1.58;;;17.90;99.90;;;;;;5019455;28;20548;-81
2022/09/13 07:13:31;;;;;;;13.52;2.00;;;17.90;99.90;;;;;;5022197;28;20057;-78
2022/09/13 07:15:59;;;;;;;6.22;1.30;;;18.00;99.90;;;;;;5019559;28;20380;-77
2022/09/13 07:18:25;;;;;;;9.25;1.60;;;18.10;99.90;;;;;;5006408;28;20057;-80
2022/09/13 07:20:50;;;;;;;5.50;1.13;;;18.20;99.90;;;;;;5004689;28;20414;-78
2022/09/13 07:23:16;;;;;;;5.05;1.20;;;18.10;99.90;;;;;;4994487;28;20049;-78
2022/09/13 07:25:42;;;;;;;9.18;1.77;;;18.20;99.90;;;;;;4992498;28;20034;-76
2022/09/13 07:28:07;;;;;;;11.73;1.60;;;18.30;99.90;;;;;;5006489;28;20041;-77
2022/09/13 07:30:33;;;;;;;9.30;1.48;;;18.30;99.90;;;;;;4991482;28;20163;-75
2022/09/13 07:32:59;;;;;;;9.23;1.48;;;18.10;99.90;;;;;;5012280;28;20100;-77
2022/09/13 07:35:24;;;;;;;10.05;1.73;;;18.00;99.90;;;;;;4989387;28;20038;-80
2022/09/13 07:37:50;;;;;;;8.60;1.33;;;18.00;99.90;;;;;;5006525;28;20064;-78
2022/09/13 07:40:16;;;;;;;8.43;1.33;;;18.00;99.90;;;;;;4988885;28;20520;-80
2022/09/13 07:42:41;;;;;;;7.43;1.30;;;17.90;99.90;;;;;;4992413;28;20045;-77
2022/09/13 07:45:08;;;;;;;9.35;1.30;;;17.90;99.90;;;;;;4989756;28;20056;-77
2022/09/13 07:47:33;;;;;;;9.63;1.30;;;18.00;99.90;;;;;;4995341;28;20113;-77
2022/09/13 07:49:59;;;;;;;7.57;1.52;;;17.90;99.90;;;;;;5005638;28;20120;-77
2022/09/13 07:52:27;;;;;;;6.57;1.13;;;18.00;99.90;;;;;;5008909;28;20041;-79
2022/09/13 07:54:52;;;;;;;9.23;1.38;;;18.00;99.90;;;;;;5009903;28;20049;-81
2022/09/13 07:57:18;;;;;;;3.25;0.85;;;18.10;99.90;;;;;;5009545;28;20458;-76
2022/09/13 07:59:44;;;;;;;13.88;1.52;;;18.10;99.90;;;;;;4998800;28;20046;-78
2022/09/13 08:02:17;;;;;;;8.55;1.50;;;18.30;99.90;;;;;;5005219;28;20040;-79
2022/09/13 08:04:42;;;;;;;6.70;1.20;;;18.30;99.90;;;;;;5010340;28;20061;-78
2022/09/13 08:07:08;;;;;;;12.90;1.45;;;18.30;99.90;;;;;;4997585;28;20118;-82
2022/09/13 08:09:34;;;;;;;7.82;1.60;;;18.30;99.90;;;;;;5008046;28;20058;-79
2022/09/13 08:11:59;;;;;;;4.70;1.02;;;18.30;99.90;;;;;;5005278;28;20069;-83
2022/09/13 08:14:25;;;;;;;9.23;1.58;;;18.30;99.90;;;;;;5010173;28;20382;-79
2022/09/13 08:16:55;;;;;;;7.93;1.20;;;18.30;99.90;;;;;;5018133;28;20118;-78
2022/09/13 08:19:21;;;;;;;6.93;1.45;;;18.40;99.90;;;;;;5047226;28;20413;-79
2022/09/13 08:21:47;;;;;;;11.63;1.63;;;18.40;99.90;;;;;;5018584;28;20076;-78
2022/09/13 08:24:18;;;;;;;8.10;1.85;;;18.40;99.90;;;;;;5025805;28;20124;-81
2022/09/13 08:26:44;;;;;;;8.98;1.70;;;18.30;99.90;;;;;;5035182;28;20036;-78
2022/09/13 08:29:12;;;;;;;12.15;1.50;;;18.30;99.90;;;;;;5045725;28;20548;-78
2022/09/13 08:31:38;;;;;;;8.80;1.15;;;18.30;99.90;;;;;;5049234;28;20052;-80
2022/09/13 08:34:03;;;;;;;7.70;1.02;;;18.40;99.90;;;;;;5025695;28;20100;-78
2022/09/13 08:36:29;;;;;;;7.68;1.38;;;18.50;99.90;;;;;;5032498;28;20048;-79
2022/09/13 08:38:58;;;;;;;11.10;1.58;;;18.60;99.90;;;;;;5013357;28;20056;-81
2022/09/13 08:41:38;;;;;;;5.20;1.33;;;18.60;99.90;;;;;;5048168;28;20033;-81
2022/09/13 08:44:16;;;;;;;7.07;1.20;;;18.70;99.90;;;;;;5031605;28;20482;-80
2022/09/13 08:46:45;;;;;;;7.40;1.30;;;18.60;99.90;;;;;;5016433;28;20514;-79
2022/09/13 08:49:24;;;;;;;6.50;1.58;;;18.50;99.90;;;;;;5028165;28;20110;-81
2022/09/13 08:51:54;;;;;;;8.27;1.70;;;18.50;99.90;;;;;;5014028;28;20087;-79
2022/09/13 08:54:20;;;;;;;6.38;1.42;;;18.60;99.90;;;;;;5036007;28;20969;-80
2022/09/13 08:57:12;;;;;;;6.78;1.45;;;18.70;99.90;;;;;;5048462;28;20434;-81
2022/09/13 09:00:03;;;;;;;4.53;1.00;;;18.90;99.90;;;;;;5027251;28;20216;-80
2022/09/13 09:03:17;;;;;;;8.02;1.23;;;19.00;99.90;;;;;;5044476;28;20123;-80
2022/09/13 09:05:47;;;;;;;10.45;1.23;;;18.90;99.90;;;;;;4951639;28;20031;-80
2022/09/13 09:08:26;;;;;;;7.00;1.10;;;18.90;99.90;;;;;;4988903;28;20082;-81
2022/09/13 09:10:54;;;;;;;9.55;1.30;;;19.00;99.90;;;;;;4971705;28;20057;-79
2022/09/13 09:13:52;;;;;;;7.97;1.20;;;19.20;99.90;;;;;;4962045;28;20082;-79
2022/09/13 09:16:39;;;;;;;8.77;1.00;;;19.10;99.90;;;;;;4967960;28;20406;-80
2022/09/13 09:19:26;;;;;;;6.57;1.17;;;19.20;99.90;;;;;;4949499;28;20042;-79
2022/09/13 09:21:52;;;;;;;5.20;1.10;;;19.30;99.90;;;;;;4942327;28;20031;-80
2022/09/13 09:24:22;;;;;;;8.73;1.17;;;19.30;99.90;;;;;;4975915;28;20450;-81
2022/09/13 09:26:48;;;;;;;8.23;1.20;;;19.30;99.90;;;;;;4971810;28;20814;-79
2022/09/13 09:29:20;;;;;;;7.28;1.30;;;19.30;99.90;;;;;;4973471;28;20124;-83
2022/09/13 09:32:17;;;;;;;8.70;1.42;;;19.50;99.90;;;;;;4972764;28;20061;-80
2022/09/13 09:34:51;;;;;;;7.35;1.25;;;19.50;99.90;;;;;;4967857;28;20156;-78
2022/09/13 09:37:21;;;;;;;8.68;1.50;;;19.50;99.90;;;;;;4970477;28;20043;-80
2022/09/13 09:39:48;;;;;;;8.18;1.27;;;19.60;99.90;;;;;;5005921;28;20049;-79
2022/09/13 09:42:20;;;;;;;8.82;1.23;;;19.70;99.90;;;;;;5043692;28;20047;-80
2022/09/13 09:45:17;;;;;;;4.45;1.08;;;19.70;99.90;;;;;;5025613;28;20112;-78
2022/09/13 09:47:49;;;;;;;8.75;1.17;;;19.80;99.90;;;;;;5026963;28;20045;-83
2022/09/13 09:50:19;;;;;;;4.50;1.00;;;19.90;99.90;;;;;;5031543;28;20063;-77
2022/09/13 09:52:56;;;;;;;8.00;1.27;;;20.00;99.90;;;;;;5028149;28;20040;-77
2022/09/13 09:55:35;;;;;;;9.07;1.23;;;20.10;99.90;;;;;;5027456;28;20048;-79
2022/09/13 09:58:03;;;;;;;8.38;1.35;;;20.10;99.90;;;;;;5031030;28;20045;-81
2022/09/13 10:00:32;;;;;;;11.25;1.40;;;20.30;99.90;;;;;;5045150;28;20041;-82
2022/09/13 10:03:06;;;;;;;7.68;1.40;;;20.30;99.90;;;;;;5028829;28;20079;-76
2022/09/13 10:05:33;;;;;;;6.32;1.20;;;20.20;99.90;;;;;;5058965;28;20065;-81
2022/09/13 10:08:02;;;;;;;6.18;1.27;;;20.20;99.90;;;;;;5028968;28;20093;-79
2022/09/13 10:10:41;;;;;;;9.30;1.50;;;20.20;99.90;;;;;;5041095;28;20488;-77
2022/09/13 10:13:16;;;;;;;10.18;2.03;;;20.20;99.90;;;;;;5044926;28;20048;-82
2022/09/13 10:15:59;;;;;;;;;;;20.10;99.90;;;;;;5029468;28;20054;-80
2022/09/13 10:18:29;;;;;;;11.30;1.40;;;20.00;99.90;;;;;;5041610;28;19950;-79
2022/09/13 10:21:23;;;;;;;12.27;1.80;;;19.80;99.90;;;;;;5038468;28;20045;-78
2022/09/13 10:23:50;;;;;;;7.70;1.52;;;20.30;99.90;;;;;;5044132;28;20133;-80
2022/09/13 10:26:19;;;;;;;10.40;1.10;;;20.60;99.90;;;;;;5043562;28;22042;-81
2022/09/13 10:28:56;;;;;;;5.80;1.33;;;20.70;99.90;;;;;;5030409;28;20414;-81
2022/09/13 10:31:28;;;;;;;7.82;1.42;;;20.60;99.90;;;;;;5047412;28;20079;-80
2022/09/13 10:34:20;;;;;;;9.77;1.38;;;20.40;99.90;;;;;;5034298;28;20384;-79
2022/09/13 10:36:55;;;;;;;8.27;1.45;;;20.20;99.90;;;;;;5031737;28;20061;-78
2022/09/13 10:39:23;;;;;;;7.93;1.70;;;20.00;99.90;;;;;;5035588;28;20037;-81
2022/09/13 10:41:54;;;;;;;6.45;1.40;;;19.90;99.90;;;;;;5047320;28;20187;-77
2022/09/13 10:44:29;;;;;;;5.65;1.05;;;20.20;99.90;;;;;;5053939;28;20120;-79
2022/09/13 10:46:55;;;;;;;;;;;20.50;99.90;;;;;;5034161;28;20064;-80
2022/09/13 10:49:39;;;;;;;7.07;1.10;;;20.80;99.90;;;;;;5047297;28;19963;-81
2022/09/13 10:52:34;;;;;;;11.35;1.55;;;20.90;99.90;;;;;;5018057;28;20052;-77
2022/09/13 10:55:22;;;;;;;6.15;1.40;;;20.60;99.90;;;;;;5034513;28;20048;-82
2022/09/13 10:58:12;;;;;;;7.75;1.45;;;20.60;99.90;;;;;;5034310;28;20036;-79
2022/09/13 11:01:02;;;;;;;9.48;1.05;;;20.80;99.90;;;;;;5043161;28;20376;-83
2022/09/13 11:04:02;;;;;;;5.18;1.10;;;20.70;99.90;;;;;;5049605;28;20037;-79
2022/09/13 11:06:31;;;;;;;6.30;1.27;;;20.80;99.90;;;;;;5010250;28;20045;-80
2022/09/13 11:09:26;;;;;;;4.10;1.00;;;20.90;99.90;;;;;;5034112;28;20044;-82
2022/09/13 11:12:01;;;;;;;6.43;1.13;;;20.80;99.90;;;;;;5041857;28;20102;-81
2022/09/13 11:15:17;;;;;;;5.95;1.10;;;20.80;99.90;;;;;;5033166;28;20593;-82
2022/09/13 11:17:57;;;;;;;7.60;1.20;;;21.10;99.90;;;;;;4941908;28;20383;-81
2022/09/13 11:20:31;;;;;;;5.05;1.20;;;21.20;99.90;;;;;;4968534;28;21326;-81
2022/09/13 11:23:18;;;;;;;8.15;1.08;;;20.90;99.90;;;;;;4974207;28;20074;-80
2022/09/13 11:25:53;;;;;;;6.28;1.25;;;21.10;99.90;;;;;;4970950;28;20129;-80
2022/09/13 11:28:31;;;;;;;6.75;1.40;;;21.50;99.90;;;;;;4948066;28;20532;-83
2022/09/13 11:31:08;;;;;;;8.63;1.27;;;21.80;99.90;;;;;;4973582;28;20727;-80
2022/09/13 11:33:52;;;;;;;4.53;1.30;;;22.00;99.90;;;;;;4971390;28;20054;-81
2022/09/13 11:36:47;;;;;;;8.40;1.50;;;21.70;99.90;;;;;;4948670;28;20046;-82
2022/09/13 11:39:27;;;;;;;5.15;1.20;;;21.40;99.90;;;;;;4948355;28;20034;-77
2022/09/13 11:42:18;;;;;;;8.43;1.45;;;21.10;99.90;;;;;;4954391;28;20090;-80
2022/09/13 11:45:15;;;;;;;8.85;1.27;;;21.20;99.90;;;;;;4955140;28;20039;-82
2022/09/13 11:48:07;;;;;;;9.35;1.45;;;21.10;99.90;;;;;;4988635;28;20133;-77
2022/09/13 11:51:03;;;;;;;8.85;1.58;;;21.00;99.90;;;;;;4964936;28;20046;-79
2022/09/13 11:53:41;;;;;;;7.03;1.85;;;21.10;99.90;;;;;;4991568;28;20199;-79
2022/09/13 11:56:14;;;;;;;8.05;1.40;;;21.20;99.90;;;;;;5013254;28;20124;-81
2022/09/13 11:58:51;;;;;;;7.50;1.35;;;21.60;99.90;;;;;;5009553;28;20119;-80
2022/09/13 12:01:23;;;;;;;8.85;1.60;;;21.90;99.90;;;;;;5015693;28;20057;-80
2022/09/13 12:04:00;;;;;;;11.90;1.63;;;22.30;99.90;;;;;;5032589;28;20102;-81
2022/09/13 12:06:41;;;;;;;7.68;1.50;;;22.30;99.90;;;;;;5031886;28;20419;-80
2022/09/13 12:09:18;;;;;;;6.00;1.40;;;22.50;99.90;;;;;;5012543;28;20116;-81
2022/09/13 12:12:03;;;;;;;6.80;1.13;;;22.50;99.90;;;;;;5028633;28;20048;-80
2022/09/13 12:14:37;;;;;;;8.27;1.48;;;22.60;99.90;;;;;;5034143;28;20373;-81
2022/09/13 12:17:05;;;;;;;;;;;22.40;99.90;;;;;;5052524;28;20532;-81
2022/09/13 12:19:45;;;;;;;11.60;1.60;;;22.30;99.90;;;;;;5031703;28;19928;-81
2022/09/13 12:22:13;;;;;;;8.50;1.38;;;22.40;99.90;;;;;;5048220;28;20036;-85
2022/09/13 12:24:50;;;;;;;10.25;1.58;;;22.50;99.90;;;;;;5049512;28;20063;-82
2022/09/13 12:27:34;;;;;;;13.10;1.65;;;22.50;99.90;;;;;;5024226;28;20052;-84
2022/09/13 12:30:12;;;;;;;10.50;1.80;;;22.10;99.90;;;;;;5045411;28;20049;-82
2022/09/13 12:32:38;;;;;;;11.02;1.80;;;22.00;99.90;;;;;;5046113;28;20038;-79
2022/09/13 12:35:12;;;;;;;8.77;1.52;;;21.80;99.90;;;;;;5048277;28;20041;-76
2022/09/13 12:37:41;;;;;;;9.23;2.00;;;21.60;99.90;;;;;;5042098;28;20128;-83
2022/09/13 12:40:22;;;;;;;9.73;2.10;;;21.70;99.90;;;;;;5030779;28;20152;-77
2022/09/13 12:43:21;;;;;;;9.65;1.70;;;21.90;99.90;;;;;;5030101;28;21704;-84
2022/09/13 12:45:58;;;;;;;9.50;1.67;;;22.20;99.90;;;;;;5046507;28;20035;-80
2022/09/13 12:48:38;;;;;;;8.23;1.60;;;22.50;99.90;;;;;;5026979;28;20052;-81
2022/09/13 12:51:36;;;;;;;10.45;1.70;;;22.30;99.90;;;;;;5014798;28;20391;-81
2022/09/13 12:54:02;;;;;;;6.82;1.60;;;22.00;99.90;;;;;;5048337;28;20037;-80
2022/09/13 12:56:49;;;;;;;7.90;1.77;;;21.90;99.90;;;;;;5044080;28;20067;-80
2022/09/13 12:59:52;;;;;;;8.32;1.85;;;21.70;99.90;;;;;;5044109;28;20045;-82
2022/09/13 13:02:34;;;;;;;8.23;1.30;;;21.70;99.90;;;;;;5027660;28;20056;-79
2022/09/13 13:05:26;;;;;;;7.85;1.50;;;21.50;99.90;;;;;;5041199;28;20037;-80
2022/09/13 13:07:59;;;;;;;9.00;1.83;;;21.50;99.90;;;;;;4960716;28;20043;-80
2022/09/13 13:10:31;;;;;;;9.38;1.52;;;21.20;99.90;;;;;;4971659;28;20046;-80
2022/09/13 13:13:23;;;;;;;10.20;1.50;;;21.30;99.90;;;;;;4966524;28;20057;-78
2022/09/13 13:15:49;;;;;;;5.20;1.33;;;21.40;99.90;;;;;;4968305;28;20058;-79
2022/09/13 13:18:21;;;;;;;6.38;1.60;;;21.50;99.90;;;;;;4937853;28;20170;-78